createdAt,value
2017-10-11T00:02:17.709Z,78.30
2017-10-11T00:04:45.323Z,78.20
2017-10-11T00:07:12.967Z,78.30
2017-10-11T00:09:40.718Z,78.30
2017-10-11T00:12:08.341Z,78.20
2017-10-11T00:14:36.747Z,78.30
2017-10-11T00:17:04.383Z,78.20
2017-10-11T00:19:32.063Z,78.30
2017-10-11T00:21:59.691Z,78.20
2017-10-11T00:24:28.120Z,78.30
2017-10-11T00:26:55.740Z,78.20
2017-10-11T00:29:24.128Z,78.30
2017-10-11T00:31:52.540Z,78.30
2017-10-11T00:34:20.158Z,78.20
2017-10-11T00:36:48.564Z,78.30
2017-10-11T00:39:16.179Z,78.30
2017-10-11T00:41:45.347Z,78.30
2017-10-11T00:44:13.017Z,78.30
2017-10-11T00:46:40.647Z,78.30
2017-10-11T00:49:08.300Z,78.40
2017-10-11T00:51:35.927Z,78.40
2017-10-11T00:54:03.587Z,78.40
2017-10-11T00:56:31.228Z,78.40
2017-10-11T00:58:58.891Z,78.40
2017-10-11T01:01:26.514Z,78.30
2017-10-11T01:03:54.189Z,78.30
2017-10-11T01:06:21.827Z,78.30
2017-10-11T01:08:50.451Z,78.30
2017-10-11T01:11:18.075Z,78.30
2017-10-11T01:13:45.878Z,78.30
2017-10-11T01:16:13.518Z,78.40
2017-10-11T01:18:41.151Z,78.40
2017-10-11T01:21:09.568Z,78.30
2017-10-11T01:23:37.191Z,78.30
2017-10-11T01:26:05.624Z,78.30
2017-10-11T01:28:33.257Z,78.30
2017-10-11T01:31:00.916Z,78.30
2017-10-11T01:33:28.611Z,78.20
2017-10-11T01:35:56.295Z,78.20
2017-10-11T01:38:23.947Z,78.20
2017-10-11T01:40:51.570Z,79.10
2017-10-11T01:43:19.229Z,78.20
2017-10-11T01:45:46.864Z,78.20
2017-10-11T01:48:15.283Z,78.30
2017-10-11T01:50:42.905Z,78.30
2017-10-11T01:53:11.327Z,78.20
2017-10-11T01:55:38.952Z,78.20
2017-10-11T01:58:07.489Z,78.20
2017-10-11T02:00:35.130Z,78.10
2017-10-11T02:03:02.787Z,78.20
2017-10-11T02:05:30.492Z,78.20
2017-10-11T02:07:58.954Z,78.20
2017-10-11T02:10:26.581Z,78.90
2017-10-11T02:12:54.229Z,78.10
2017-10-11T02:15:22.617Z,78.20
2017-10-11T02:17:51.062Z,78.10
2017-10-11T02:20:18.713Z,78.10
2017-10-11T02:22:46.466Z,78.90
2017-10-11T02:25:14.107Z,78.20
2017-10-11T02:27:41.751Z,78.20
2017-10-11T02:30:09.382Z,78.30
2017-10-11T02:32:37.046Z,78.30
2017-10-11T02:35:05.447Z,78.30
2017-10-11T02:37:33.171Z,78.30
2017-10-11T02:40:00.940Z,78.30
2017-10-11T02:42:28.583Z,78.40
2017-10-11T02:44:56.251Z,78.40
2017-10-11T02:47:23.891Z,78.40
2017-10-11T02:49:51.553Z,78.40
2017-10-11T02:52:19.184Z,78.30
2017-10-11T02:54:47.612Z,78.40
2017-10-11T02:57:15.259Z,78.40
2017-10-11T02:59:42.883Z,78.30
2017-10-11T03:02:11.423Z,78.40
2017-10-11T03:04:39.056Z,78.20
2017-10-11T03:07:06.711Z,78.40
2017-10-11T03:09:34.420Z,78.40
2017-10-11T03:12:02.185Z,78.40
2017-10-11T03:14:29.828Z,78.40
2017-10-11T03:16:57.480Z,78.40
2017-10-11T03:19:25.126Z,78.40
2017-10-11T03:21:52.751Z,78.40
2017-10-11T03:24:21.322Z,78.40
2017-10-11T03:26:48.934Z,78.20
2017-10-11T03:29:16.577Z,78.40
2017-10-11T03:31:44.982Z,78.50
2017-10-11T03:34:12.605Z,78.30
2017-10-11T03:36:40.264Z,78.40
2017-10-11T03:39:07.891Z,79.40
2017-10-11T03:41:35.556Z,78.50
2017-10-11T03:44:03.199Z,78.50
2017-10-11T03:46:30.819Z,78.50
2017-10-11T03:48:59.239Z,78.50
2017-10-11T03:51:27.022Z,78.50
2017-10-11T03:53:54.683Z,78.50
2017-10-11T03:56:22.312Z,78.50
2017-10-11T03:58:49.940Z,78.50
2017-10-11T04:01:17.582Z,78.50
2017-10-11T04:03:45.207Z,78.40
2017-10-11T04:06:12.894Z,78.50
2017-10-11T04:08:40.531Z,78.50
2017-10-11T04:11:08.186Z,78.50
2017-10-11T04:13:35.814Z,78.50
2017-10-11T04:16:03.445Z,78.50
2017-10-11T04:18:31.096Z,78.50
2017-10-11T04:20:58.719Z,78.50
2017-10-11T04:23:27.148Z,78.50
2017-10-11T04:25:54.771Z,78.50
2017-10-11T04:28:22.411Z,78.50
2017-10-11T04:30:50.848Z,78.50
2017-10-11T04:33:18.498Z,78.50
2017-10-11T04:35:46.159Z,78.50
2017-10-11T04:38:13.790Z,78.60
2017-10-11T04:40:42.219Z,78.50
2017-10-11T04:43:09.855Z,78.50
2017-10-11T04:45:37.503Z,78.50
2017-10-11T04:48:05.132Z,78.60
2017-10-11T04:50:32.859Z,78.60
2017-10-11T04:53:00.471Z,78.40
2017-10-11T04:55:28.862Z,78.60
2017-10-11T04:57:57.279Z,78.40
2017-10-11T05:00:24.887Z,78.40
2017-10-11T05:02:53.302Z,78.50
2017-10-11T05:05:20.927Z,78.30
2017-10-11T05:07:48.563Z,78.40
2017-10-11T05:10:16.190Z,78.50
2017-10-11T05:12:44.703Z,78.40
2017-10-11T05:15:12.331Z,78.40
2017-10-11T05:17:39.983Z,78.30
2017-10-11T05:20:07.593Z,78.30
2017-10-11T05:22:35.247Z,78.30
2017-10-11T05:25:02.932Z,78.20
2017-10-11T05:27:30.668Z,78.20
2017-10-11T05:29:58.317Z,78.10
2017-10-11T05:32:25.940Z,78.10
2017-10-11T05:34:54.473Z,78.00
2017-10-11T05:37:22.114Z,77.90
2017-10-11T05:39:49.731Z,78.00
2017-10-11T05:42:17.460Z,78.00
2017-10-11T05:44:45.101Z,78.00
2017-10-11T05:47:12.752Z,78.00
2017-10-11T05:49:40.367Z,78.00
2017-10-11T05:52:08.313Z,78.00
2017-10-11T05:54:35.958Z,78.00
2017-10-11T05:57:03.859Z,78.00
2017-10-11T05:59:31.628Z,78.10
2017-10-11T06:01:59.271Z,78.20
2017-10-11T06:04:26.936Z,78.00
2017-10-11T06:06:54.564Z,78.10
2017-10-11T06:09:22.209Z,78.20
2017-10-11T06:11:50.615Z,78.20
2017-10-11T06:14:18.293Z,78.10
2017-10-11T06:16:46.073Z,78.10
2017-10-11T06:19:13.729Z,78.20
2017-10-11T06:21:41.401Z,78.20
2017-10-11T06:24:09.154Z,78.10
2017-10-11T06:26:36.931Z,78.30
2017-10-11T06:29:04.583Z,78.10
2017-10-11T06:31:32.245Z,78.20
2017-10-11T06:33:59.924Z,78.20
2017-10-11T06:36:27.580Z,78.30
2017-10-11T06:38:55.208Z,78.40
2017-10-11T06:41:22.832Z,78.50
2017-10-11T06:43:51.296Z,78.60
2017-10-11T06:46:18.919Z,78.60
2017-10-11T06:48:46.614Z,78.60
2017-10-11T06:51:14.373Z,78.60
2017-10-11T06:53:42.036Z,78.70
2017-10-11T06:56:09.699Z,78.70
2017-10-11T06:58:37.320Z,78.70
2017-10-11T07:01:05.035Z,78.70
2017-10-11T07:03:32.654Z,78.80
2017-10-11T07:06:00.330Z,78.80
2017-10-11T07:08:28.923Z,78.90
2017-10-11T07:10:56.576Z,79.80
2017-10-11T07:13:24.198Z,78.90
2017-10-11T07:15:52.621Z,79.10
2017-10-11T07:18:20.248Z,79.10
2017-10-11T07:20:47.921Z,79.10
2017-10-11T07:23:15.624Z,79.10
2017-10-11T07:25:43.297Z,79.20
2017-10-11T07:28:10.963Z,79.30
2017-10-11T07:30:38.580Z,79.50
2017-10-11T07:33:06.234Z,79.50
2017-10-11T07:35:33.935Z,79.20
2017-10-11T07:38:01.599Z,79.40
2017-10-11T07:40:29.242Z,79.40
2017-10-11T07:42:56.867Z,79.50
2017-10-11T07:45:24.518Z,79.40
2017-10-11T07:47:52.915Z,79.60
2017-10-11T07:50:20.629Z,79.60
2017-10-11T07:52:48.323Z,79.60
2017-10-11T07:55:16.750Z,79.70
2017-10-11T07:57:44.430Z,79.70
2017-10-11T08:00:12.059Z,79.80
2017-10-11T08:02:39.719Z,79.70
2017-10-11T08:05:07.359Z,80.00
2017-10-11T08:07:35.767Z,80.20
2017-10-11T08:10:03.388Z,80.10
2017-10-11T08:12:31.840Z,80.10
2017-10-11T08:14:59.615Z,80.00
2017-10-11T08:17:27.282Z,80.10
2017-10-11T08:19:55.019Z,80.10
2017-10-11T08:22:22.637Z,80.10
2017-10-11T08:24:50.280Z,80.10
2017-10-11T08:27:17.903Z,80.30
2017-10-11T08:29:45.542Z,80.70
2017-10-11T08:32:13.252Z,80.60
2017-10-11T08:34:42.410Z,80.70
2017-10-11T08:37:10.096Z,80.60
2017-10-11T08:39:37.864Z,80.50
2017-10-11T08:42:05.491Z,80.60
2017-10-11T08:44:33.130Z,80.60
2017-10-11T08:47:01.659Z,80.60
2017-10-11T08:49:29.298Z,80.60
2017-10-11T08:51:57.120Z,80.40
2017-10-11T08:54:25.519Z,80.50
2017-10-11T08:56:53.943Z,80.60
2017-10-11T08:59:21.611Z,80.60
2017-10-11T09:01:49.271Z,80.50
2017-10-11T09:04:16.931Z,80.50
2017-10-11T09:06:44.559Z,80.50
2017-10-11T09:09:12.266Z,80.50
2017-10-11T09:11:39.894Z,80.70
2017-10-11T09:14:07.540Z,80.60
2017-10-11T09:16:35.971Z,80.70
2017-10-11T09:19:03.617Z,80.60
2017-10-11T09:21:31.311Z,80.60
2017-10-11T09:23:58.964Z,80.50
2017-10-11T09:26:26.591Z,80.50
2017-10-11T09:28:54.215Z,80.60
2017-10-11T09:31:22.633Z,80.50
2017-10-11T09:33:50.252Z,80.50
2017-10-11T09:36:17.991Z,80.60
2017-10-11T09:38:45.608Z,80.60
2017-10-11T09:41:13.235Z,80.70
2017-10-11T09:43:40.974Z,80.80
2017-10-11T09:46:08.659Z,81.90
2017-10-11T09:48:36.319Z,81.10
2017-10-11T09:51:04.109Z,81.50
2017-10-11T09:53:32.535Z,82.00
2017-10-11T09:56:00.212Z,82.00
2017-10-11T09:58:27.834Z,82.30
2017-10-11T10:00:55.488Z,83.00
2017-10-11T10:03:23.191Z,82.90
2017-10-11T10:05:50.959Z,83.00
2017-10-11T10:08:18.588Z,83.20
2017-10-11T10:10:46.427Z,82.90
2017-10-11T10:13:14.863Z,83.20
2017-10-11T10:15:42.566Z,83.00
2017-10-11T10:18:11.003Z,82.90
2017-10-11T10:20:38.716Z,83.00
2017-10-11T10:23:07.369Z,82.80
2017-10-11T10:25:35.120Z,82.70
2017-10-11T10:28:02.785Z,82.60
2017-10-11T10:30:30.416Z,82.30
2017-10-11T10:32:58.048Z,82.20
2017-10-11T10:35:26.527Z,82.10
2017-10-11T10:37:54.911Z,82.10
2017-10-11T10:40:23.387Z,82.00
2017-10-11T10:42:51.925Z,82.00
2017-10-11T10:45:19.604Z,82.00
2017-10-11T10:47:47.257Z,82.10
2017-10-11T10:50:14.872Z,82.10
2017-10-11T10:52:43.444Z,82.20
2017-10-11T10:55:12.551Z,82.10
2017-10-11T10:57:40.179Z,82.10
2017-10-11T11:00:07.816Z,81.90
2017-10-11T11:02:35.481Z,81.50
2017-10-11T11:05:03.151Z,81.60
2017-10-11T11:07:30.880Z,81.50
2017-10-11T11:09:58.573Z,81.40
2017-10-11T11:12:26.252Z,81.40
2017-10-11T11:14:53.889Z,81.40
2017-10-11T11:17:21.514Z,81.20
2017-10-11T11:19:49.949Z,81.10
2017-10-11T11:22:17.586Z,80.90
2017-10-11T11:24:45.266Z,81.00
2017-10-11T11:27:12.938Z,80.80
2017-10-11T11:29:40.584Z,80.70
2017-10-11T11:32:08.229Z,80.60
2017-10-11T11:34:35.897Z,80.60
2017-10-11T11:37:03.511Z,80.40
2017-10-11T11:39:31.182Z,80.20
2017-10-11T11:41:59.583Z,80.00
2017-10-11T11:44:27.191Z,80.00
2017-10-11T11:46:54.840Z,79.80
2017-10-11T11:49:22.484Z,80.70
2017-10-11T11:51:50.127Z,79.90
2017-10-11T11:54:17.744Z,79.70
2017-10-11T11:56:45.400Z,79.80
2017-10-11T11:59:13.024Z,79.70
2017-10-11T12:01:40.693Z,79.60
2017-10-11T12:04:08.423Z,79.50
2017-10-11T12:06:36.803Z,79.40
2017-10-11T12:09:05.214Z,79.40
2017-10-11T12:11:32.834Z,79.30
2017-10-11T12:14:01.248Z,79.50
2017-10-11T12:16:28.876Z,79.20
2017-10-11T12:18:57.317Z,79.40
2017-10-11T12:21:25.079Z,79.20
2017-10-11T12:23:52.720Z,79.20
2017-10-11T12:26:20.365Z,79.20
2017-10-11T12:28:48.001Z,79.10
2017-10-11T12:31:16.461Z,79.00
2017-10-11T12:33:44.076Z,78.90
2017-10-11T12:36:11.730Z,79.00
2017-10-11T12:38:40.174Z,79.00
2017-10-11T12:41:07.832Z,78.80
2017-10-11T12:43:36.232Z,78.90
2017-10-11T12:46:04.671Z,78.80
2017-10-11T12:48:32.320Z,78.70
2017-10-11T12:51:00.009Z,78.80
2017-10-11T12:53:27.657Z,78.80
2017-10-11T12:55:55.332Z,78.80
2017-10-11T12:58:22.983Z,78.90
2017-10-11T13:00:50.599Z,78.80
2017-10-11T13:03:19.013Z,78.50
2017-10-11T13:05:46.628Z,78.40
2017-10-11T13:08:15.023Z,78.60
2017-10-11T13:10:43.463Z,78.50
2017-10-11T13:13:11.095Z,78.50
2017-10-11T13:15:38.749Z,78.40
2017-10-11T13:18:06.367Z,78.30
2017-10-11T13:20:34.025Z,78.30
2017-10-11T13:23:01.712Z,78.30
2017-10-11T13:25:30.136Z,78.10
2017-10-11T13:27:57.796Z,78.10
2017-10-11T13:30:25.401Z,78.00
2017-10-11T13:32:53.820Z,78.10
2017-10-11T13:35:21.431Z,78.10
2017-10-11T13:37:49.069Z,78.10
2017-10-11T13:40:16.707Z,78.00
2017-10-11T13:42:44.375Z,77.90
2017-10-11T13:45:12.000Z,77.90
2017-10-11T13:47:40.378Z,77.70
2017-10-11T13:50:08.790Z,77.70
2017-10-11T13:52:36.564Z,77.60
2017-10-11T13:55:04.283Z,77.60
2017-10-11T13:57:32.716Z,77.60
2017-10-11T14:00:00.396Z,77.50
2017-10-11T14:02:28.026Z,77.60
2017-10-11T14:04:55.690Z,77.60
2017-10-11T14:07:23.369Z,77.60
2017-10-11T14:09:51.039Z,77.60
2017-10-11T14:12:18.719Z,77.60
2017-10-11T14:14:46.333Z,77.50
2017-10-11T14:17:13.998Z,77.50
2017-10-11T14:19:41.615Z,77.50
2017-10-11T14:22:10.036Z,77.60
2017-10-11T14:24:37.664Z,77.60
2017-10-11T14:27:06.112Z,77.50
2017-10-11T14:29:33.764Z,77.40
2017-10-11T14:32:01.572Z,77.40
2017-10-11T14:34:29.992Z,77.20
2017-10-11T14:36:57.627Z,77.00
2017-10-11T14:39:26.042Z,76.80
2017-10-11T14:41:53.676Z,76.80
2017-10-11T14:44:21.299Z,76.80
2017-10-11T14:46:48.949Z,76.60
2017-10-11T14:49:16.593Z,76.30
2017-10-11T14:51:44.233Z,76.40
2017-10-11T14:54:11.891Z,76.20
2017-10-11T14:56:39.534Z,76.20
2017-10-11T14:59:07.919Z,76.10
2017-10-11T15:01:35.659Z,76.10
2017-10-11T15:04:03.303Z,75.90
2017-10-11T15:06:30.944Z,75.80
2017-10-11T15:08:58.583Z,75.60
2017-10-11T15:11:26.192Z,75.60
2017-10-11T15:13:53.834Z,75.90
2017-10-11T15:16:21.459Z,75.70
2017-10-11T15:18:50.265Z,75.70
2017-10-11T15:21:18.774Z,76.20
2017-10-11T15:23:46.547Z,75.30
2017-10-11T15:26:14.209Z,75.20
2017-10-11T15:28:41.876Z,75.40
2017-10-11T15:31:09.637Z,75.20
2017-10-11T15:33:37.256Z,75.00
2017-10-11T15:36:04.908Z,74.80
2017-10-11T15:38:32.646Z,75.00
2017-10-11T15:41:01.200Z,75.00
2017-10-11T15:43:28.816Z,74.80
2017-10-11T15:45:56.636Z,74.80
2017-10-11T15:48:24.453Z,74.90
2017-10-11T15:50:52.242Z,74.70
2017-10-11T15:53:20.078Z,74.70
2017-10-11T15:55:47.864Z,74.60
2017-10-11T15:58:15.631Z,74.60
2017-10-11T16:00:43.517Z,74.40
2017-10-11T16:03:11.353Z,74.40
2017-10-11T16:05:39.240Z,74.60
2017-10-11T16:08:07.010Z,74.60
2017-10-11T16:10:34.767Z,74.20
2017-10-11T16:13:02.679Z,74.30
2017-10-11T16:15:30.491Z,74.30
2017-10-11T16:17:58.314Z,74.50
2017-10-11T16:20:26.116Z,74.20
2017-10-11T16:22:53.939Z,74.80
2017-10-11T16:25:21.713Z,74.10
2017-10-11T16:27:49.663Z,74.10
2017-10-11T16:30:17.530Z,74.20
2017-10-11T16:32:46.113Z,74.00
2017-10-11T16:35:14.293Z,73.90
2017-10-11T16:37:42.155Z,73.60
2017-10-11T16:40:10.025Z,73.40
2017-10-11T16:42:37.893Z,73.40
2017-10-11T16:45:05.752Z,73.60
2017-10-11T16:47:33.623Z,73.60
2017-10-11T16:50:01.460Z,73.50
2017-10-11T16:52:29.355Z,73.40
2017-10-11T16:54:57.221Z,73.40
2017-10-11T16:57:25.092Z,73.50
2017-10-11T16:59:52.879Z,73.40
2017-10-11T17:02:21.499Z,73.50
2017-10-11T17:04:49.263Z,73.40
2017-10-11T17:07:17.068Z,73.30
2017-10-11T17:09:44.851Z,73.30
2017-10-11T17:12:12.660Z,72.90
2017-10-11T17:14:40.438Z,73.00
2017-10-11T17:17:08.342Z,72.80
2017-10-11T17:19:36.303Z,72.90
2017-10-11T17:22:04.171Z,72.80
2017-10-11T17:24:31.997Z,73.00
2017-10-11T17:26:59.796Z,73.00
2017-10-11T17:29:28.359Z,72.80
2017-10-11T17:31:56.164Z,72.80
2017-10-11T17:34:24.020Z,72.60
2017-10-11T17:36:51.829Z,72.50
2017-10-11T17:39:19.656Z,72.80
2017-10-11T17:41:47.418Z,72.50
2017-10-11T17:44:15.253Z,72.50
2017-10-11T17:46:43.071Z,72.60
2017-10-11T17:49:11.626Z,72.60
2017-10-11T17:51:39.523Z,72.40
2017-10-11T17:54:08.092Z,72.70
2017-10-11T17:56:35.912Z,72.50
2017-10-11T17:59:03.539Z,72.50
2017-10-11T18:01:31.973Z,72.50
2017-10-11T18:03:59.592Z,72.50
2017-10-11T18:06:27.979Z,72.30
2017-10-11T18:08:55.624Z,72.30
2017-10-11T18:11:24.003Z,72.10
2017-10-11T18:13:52.441Z,72.40
2017-10-11T18:16:20.073Z,72.40
2017-10-11T18:18:47.725Z,73.00
2017-10-11T18:21:15.349Z,72.30
2017-10-11T18:23:42.999Z,72.30
2017-10-11T18:26:10.809Z,72.30
2017-10-11T18:28:38.458Z,72.10
2017-10-11T18:31:06.907Z,72.40
2017-10-11T18:33:34.591Z,72.30
2017-10-11T18:36:02.247Z,73.10
2017-10-11T18:38:29.877Z,72.40
2017-10-11T18:40:57.539Z,72.20
2017-10-11T18:43:25.164Z,72.30
2017-10-11T18:45:53.605Z,72.40
2017-10-11T18:48:21.243Z,72.30
2017-10-11T18:50:48.860Z,72.40
2017-10-11T18:53:17.269Z,72.20
2017-10-11T18:55:44.889Z,72.20
2017-10-11T18:58:13.345Z,71.90
2017-10-11T19:00:40.969Z,71.90
2017-10-11T19:03:08.600Z,72.00
2017-10-11T19:05:37.003Z,72.00
2017-10-11T19:08:04.619Z,72.00
2017-10-11T19:10:32.283Z,72.00
2017-10-11T19:12:59.909Z,72.00
2017-10-11T19:15:27.560Z,71.90
2017-10-11T19:17:55.175Z,72.00
2017-10-11T19:20:23.582Z,72.90
2017-10-11T19:22:51.197Z,72.20
2017-10-11T19:25:18.834Z,71.90
2017-10-11T19:27:46.447Z,71.90
2017-10-11T19:30:14.881Z,71.70
2017-10-11T19:32:42.769Z,71.60
2017-10-11T19:35:10.498Z,71.70
2017-10-11T19:37:38.202Z,72.60
2017-10-11T19:40:05.908Z,71.50
2017-10-11T19:42:33.552Z,71.40
2017-10-11T19:45:01.947Z,71.60
2017-10-11T19:47:29.645Z,71.60
2017-10-11T19:49:57.261Z,71.60
2017-10-11T19:52:25.689Z,71.70
2017-10-11T19:54:53.299Z,71.60
2017-10-11T19:57:21.717Z,71.30
2017-10-11T19:59:49.378Z,71.30
2017-10-11T20:02:17.050Z,71.40
2017-10-11T20:04:44.673Z,71.30
2017-10-11T20:07:13.080Z,71.40
2017-10-11T20:09:40.695Z,71.30
2017-10-11T20:12:09.138Z,71.30
2017-10-11T20:14:36.750Z,71.10
2017-10-11T20:17:05.122Z,71.40
2017-10-11T20:19:33.544Z,71.40
2017-10-11T20:22:01.380Z,71.30
2017-10-11T20:24:29.064Z,71.20
2017-10-11T20:26:56.902Z,71.10
2017-10-11T20:29:25.532Z,71.20
2017-10-11T20:31:53.358Z,71.00
2017-10-11T20:34:21.945Z,71.00
2017-10-11T20:36:50.506Z,71.00
2017-10-11T20:39:18.332Z,70.80
2017-10-11T20:41:46.200Z,70.50
2017-10-11T20:44:14.029Z,70.80
2017-10-11T20:46:42.621Z,70.60
2017-10-11T20:49:10.641Z,71.40
2017-10-11T20:51:38.517Z,70.70
2017-10-11T20:54:06.491Z,70.80
2017-10-11T20:56:34.310Z,70.60
2017-10-11T20:59:02.098Z,70.50
2017-10-11T21:01:29.931Z,70.40
2017-10-11T21:03:57.712Z,70.50
2017-10-11T21:06:25.508Z,70.40
2017-10-11T21:08:53.305Z,70.50
2017-10-11T21:11:21.899Z,70.70
2017-10-11T21:13:50.446Z,70.40
2017-10-11T21:16:18.317Z,70.40
2017-10-11T21:18:46.120Z,70.50
2017-10-11T21:21:13.957Z,70.20
2017-10-11T21:23:41.766Z,70.30
2017-10-11T21:26:09.933Z,70.30
2017-10-11T21:28:37.763Z,70.30
2017-10-11T21:31:05.550Z,70.10
2017-10-11T21:33:34.281Z,70.10
2017-10-11T21:36:02.122Z,70.80
2017-10-11T21:38:30.909Z,70.10
2017-10-11T21:40:58.728Z,70.00
2017-10-11T21:43:26.569Z,70.00
2017-10-11T21:45:54.492Z,70.00
2017-10-11T21:48:22.327Z,70.00
2017-10-11T21:50:50.215Z,70.00
2017-10-11T21:53:18.802Z,70.10
2017-10-11T21:55:47.190Z,70.90
2017-10-11T21:58:16.607Z,70.00
2017-10-11T22:00:47.246Z,70.20
2017-10-11T22:03:17.892Z,70.10
2017-10-11T22:05:46.766Z,70.30
2017-10-11T22:08:14.802Z,70.30
2017-10-11T22:10:43.375Z,70.40
2017-10-11T22:13:11.207Z,70.30
2017-10-11T22:15:38.957Z,70.30
2017-10-11T22:18:06.844Z,70.30
2017-10-11T22:20:34.612Z,70.30
2017-10-11T22:23:02.477Z,70.40
2017-10-11T22:25:30.290Z,70.40
2017-10-11T22:27:58.885Z,70.60
2017-10-11T22:30:26.799Z,70.60
2017-10-11T22:32:54.652Z,70.40
2017-10-11T22:35:22.617Z,70.50
2017-10-11T22:37:50.411Z,70.50
2017-10-11T22:40:18.240Z,70.40
2017-10-11T22:42:46.057Z,70.60
2017-10-11T22:45:13.826Z,70.70
2017-10-11T22:47:41.706Z,70.80
2017-10-11T22:50:10.288Z,70.70
2017-10-11T22:52:38.812Z,70.70
2017-10-11T22:55:06.442Z,70.70
2017-10-11T22:57:34.999Z,71.90
2017-10-11T23:00:02.793Z,71.10
2017-10-11T23:02:31.327Z,71.00
2017-10-11T23:04:58.991Z,71.00
2017-10-11T23:07:26.615Z,71.00
2017-10-11T23:09:54.317Z,70.90
2017-10-11T23:12:22.039Z,70.90
2017-10-11T23:14:49.744Z,70.80
2017-10-11T23:17:18.126Z,71.10
2017-10-11T23:19:45.809Z,71.00
2017-10-11T23:22:13.494Z,71.00
2017-10-11T23:24:41.925Z,71.90
2017-10-11T23:27:09.563Z,71.00
2017-10-11T23:29:37.183Z,71.10
2017-10-11T23:32:04.831Z,71.20
2017-10-11T23:34:32.467Z,71.30
2017-10-11T23:37:00.882Z,71.30
2017-10-11T23:39:28.491Z,71.20
2017-10-11T23:41:56.346Z,71.00
2017-10-11T23:44:24.020Z,71.10
2017-10-11T23:46:51.653Z,71.10
2017-10-11T23:49:20.153Z,71.10
2017-10-11T23:51:47.798Z,71.00
2017-10-11T23:54:16.276Z,71.10
2017-10-11T23:56:44.685Z,71.30
2017-10-11T23:59:12.343Z,71.20
